Time;durP1;ratioP1;P1;durP2;ratioP2;P2;SDS_P1;SDS_P2;PMS_P1;PMS_P2;Temp;Humidity;BMP_temperature;BMP_pressure;BME280_temperature;BME280_humidity;BME280_pressure;Samples;Min_cycle;Max_cycle;Signal;HPM_P1;HPM_P2
2022/05/15 00:02:27;;;;;;;;;5.75;4.75;;;;;20.17;43.70;101141.31;5055620;28;45653;-80
2022/05/15 00:04:53;;;;;;;;;4.25;4.25;;;;;20.27;44.10;101161.09;5059318;28;47227;-79
2022/05/15 00:07:18;;;;;;;;;6.00;6.00;;;;;20.34;44.14;101167.66;5057694;28;45435;-80
2022/05/15 00:09:44;;;;;;;;;5.00;5.00;;;;;20.25;44.29;101162.25;5063106;28;45473;-80
2022/05/15 00:12:10;;;;;;;;;5.25;4.00;;;;;20.29;44.15;101153.72;5062973;28;45291;-78
2022/05/15 00:14:35;;;;;;;;;3.75;3.00;;;;;20.25;44.10;101137.91;5058179;28;45488;-80
2022/05/15 00:17:01;;;;;;;;;5.75;5.75;;;;;20.27;44.09;101138.63;5058048;27;45357;-82
2022/05/15 00:19:27;;;;;;;;;4.00;4.00;;;;;20.20;43.81;101136.50;5057080;28;45292;-81
2022/05/15 00:21:52;;;;;;;;;5.00;5.00;;;;;20.19;44.00;101145.59;5059886;28;45692;-82
2022/05/15 00:24:18;;;;;;;;;5.00;4.50;;;;;20.20;44.37;101144.59;5058469;28;46658;-81
2022/05/15 00:26:43;;;;;;;;;5.75;5.75;;;;;20.20;44.07;101138.31;5067763;28;45394;-78
2022/05/15 00:29:09;;;;;;;;;6.00;5.00;;;;;20.14;43.94;101142.44;5055589;27;45428;-77
2022/05/15 00:31:34;;;;;;;;;5.75;5.75;;;;;20.13;44.34;101126.34;5063222;28;46217;-78
2022/05/15 00:33:59;;;;;;;;;4.75;4.00;;;;;20.04;44.12;101119.09;5044168;28;45292;-78
2022/05/15 00:36:25;;;;;;;;;5.50;4.75;;;;;20.08;44.21;101123.22;5057696;28;45554;-79
2022/05/15 00:38:51;;;;;;;;;6.00;6.00;;;;;20.08;44.58;101132.16;5066588;28;45391;-79
2022/05/15 00:41:16;;;;;;;;;6.50;6.00;;;;;20.12;44.38;101138.16;5047334;28;46248;-79
2022/05/15 00:43:41;;;;;;;;;5.00;4.00;;;;;20.11;44.50;101136.47;5059325;28;45497;-79
2022/05/15 00:46:14;;;;;;;;;6.50;6.50;;;;;20.06;44.54;101136.00;5068021;28;45450;-79
2022/05/15 00:48:39;;;;;;;;;3.75;3.50;;;;;20.00;44.53;101126.63;5049983;28;45382;-78
2022/05/15 00:51:16;;;;;;;;;5.75;5.75;;;;;20.06;44.68;101142.28;5068371;27;46046;-79
2022/05/15 00:53:43;;;;;;;;;5.75;5.00;;;;;20.02;44.90;101140.84;5066693;28;45501;-78
2022/05/15 00:56:11;;;;;;;;;3.25;3.25;;;;;19.96;44.87;101141.38;5056499;28;45323;-78
2022/05/15 00:58:43;;;;;;;;;4.25;4.25;;;;;19.89;45.20;101119.47;5068846;28;45399;-77
2022/05/15 01:01:09;;;;;;;;;4.00;4.00;;;;;19.87;45.00;101118.75;5068425;27;45688;-78
2022/05/15 01:03:34;;;;;;;;;5.00;5.00;;;;;19.83;45.24;101113.75;5070556;28;45395;-79
2022/05/15 01:06:00;;;;;;;;;5.00;5.00;;;;;19.83;45.56;101117.31;5069246;28;45344;-79
2022/05/15 01:08:28;;;;;;;;;6.00;6.00;;;;;19.81;45.14;101100.38;5067595;27;45384;-78
2022/05/15 01:11:05;;;;;;;;;5.50;5.50;;;;;19.70;45.57;101092.38;5042866;28;48367;-78
2022/05/15 01:13:34;;;;;;;;;4.75;4.75;;;;;19.75;45.34;101109.91;5059076;28;45625;-79
2022/05/15 01:16:00;;;;;;;;;6.75;5.50;;;;;19.69;45.39;101094.22;5055152;28;45478;-79
2022/05/15 01:18:28;;;;;;;;;5.00;3.25;;;;;19.74;45.66;101107.31;5067243;28;45505;-79
2022/05/15 01:20:56;;;;;;;;;5.00;5.00;;;;;19.71;45.39;101105.75;5060812;28;48484;-81
2022/05/15 01:23:21;;;;;;;;;1.50;1.50;;;;;19.59;45.37;101082.50;5069992;28;45493;-81
2022/05/15 01:25:47;;;;;;;;;6.50;4.75;;;;;19.69;45.70;101093.38;5056995;28;45522;-80
2022/05/15 01:28:21;;;;;;;;;3.75;3.75;;;;;19.69;45.59;101093.38;5061710;28;45462;-80
2022/05/15 01:30:53;;;;;;;;;5.50;4.00;;;;;19.62;45.62;101081.38;5069978;27;46736;-78
2022/05/15 01:33:19;;;;;;;;;5.00;5.00;;;;;19.68;45.29;101095.22;5067031;28;45418;-78
2022/05/15 01:35:45;;;;;;;;;5.00;5.00;;;;;19.69;45.64;101087.97;5068157;28;45338;-78
2022/05/15 01:38:11;;;;;;;;;4.50;4.50;;;;;19.63;45.58;101083.94;5064713;28;45439;-78
2022/05/15 01:40:37;;;;;;;;;4.25;4.00;;;;;19.69;45.37;101091.53;5061511;27;46184;-78
2022/05/15 01:43:03;;;;;;;;;4.00;4.00;;;;;19.70;45.58;101086.97;5056196;28;46124;-78
2022/05/15 01:45:29;;;;;;;;;4.50;4.50;;;;;19.64;45.57;101082.94;5053968;28;45457;-78
2022/05/15 01:47:55;;;;;;;;;2.00;2.00;;;;;19.69;45.57;101077.16;5061548;28;45463;-78
2022/05/15 01:50:20;;;;;;;;;3.25;3.25;;;;;19.69;45.57;101074.47;5059882;28;45612;-79
2022/05/15 01:52:46;;;;;;;;;3.25;3.25;;;;;19.66;45.41;101053.97;5068173;28;45478;-78
2022/05/15 01:55:12;;;;;;;;;6.00;4.25;;;;;19.64;45.49;101069.44;5067039;28;45613;-78
2022/05/15 01:57:38;;;;;;;;;5.00;4.00;;;;;19.58;45.37;101059.19;5068763;28;45245;-78
2022/05/15 02:00:07;;;;;;;;;2.00;2.00;;;;;19.69;45.39;101075.31;5066441;28;45526;-78
2022/05/15 02:02:32;;;;;;;;;4.00;4.00;;;;;19.64;45.36;101066.75;5057711;28;45414;-78
2022/05/15 02:04:58;;;;;;;;;3.25;3.25;;;;;19.70;45.21;101076.16;5060876;28;45467;-78
2022/05/15 02:07:23;;;;;;;;;3.50;3.50;;;;;19.66;45.50;101069.31;5061608;28;45473;-77
2022/05/15 02:09:49;;;;;;;;;4.00;4.00;;;;;19.51;45.51;101039.13;5064772;27;45778;-77
2022/05/15 02:12:14;;;;;;;;;3.00;2.75;;;;;19.57;45.53;101038.56;5058577;28;45380;-78
2022/05/15 02:14:40;;;;;;;;;2.25;2.25;;;;;19.65;45.49;101056.78;5065409;28;45564;-78
2022/05/15 02:17:05;;;;;;;;;4.25;4.25;;;;;19.58;45.58;101049.25;5063843;28;45456;-78
2022/05/15 02:19:30;;;;;;;;;5.00;3.00;;;;;19.63;45.61;101061.50;5062313;28;45295;-78
2022/05/15 02:21:56;;;;;;;;;3.00;3.00;;;;;19.55;45.57;101038.72;5061372;28;45291;-78
2022/05/15 02:24:21;;;;;;;;;3.00;3.00;;;;;19.54;45.46;101036.16;5057132;28;45651;-79
2022/05/15 02:26:46;;;;;;;;;2.75;2.75;;;;;19.51;45.58;101033.75;5061027;28;45398;-78
2022/05/15 02:29:12;;;;;;;;;6.25;4.00;;;;;19.58;45.48;101034.91;5066980;27;45384;-79
2022/05/15 02:31:38;;;;;;;;;5.00;4.00;;;;;19.59;45.32;101039.28;5068412;27;45479;-79
2022/05/15 02:34:03;;;;;;;;;4.25;3.00;;;;;19.45;45.61;101012.66;5068247;28;45773;-78
2022/05/15 02:36:29;;;;;;;;;4.00;4.00;;;;;19.55;45.57;101041.44;5060538;28;45401;-79
2022/05/15 02:38:55;;;;;;;;;4.25;3.25;;;;;19.58;45.63;101041.16;5067093;28;46225;-79
2022/05/15 02:41:21;;;;;;;;;4.00;3.25;;;;;19.50;46.03;101023.91;5062842;28;45518;-78
2022/05/15 02:43:46;;;;;;;;;3.00;2.50;;;;;19.58;45.58;101040.28;5056462;28;45513;-78
2022/05/15 02:46:11;;;;;;;;;2.50;2.50;;;;;19.58;45.35;101043.84;5058403;28;45561;-80
2022/05/15 02:51:29;;;;;;;;;3.25;3.00;;;;;19.52;45.30;101022.78;5027088;28;45482;-78
2022/05/15 02:53:54;;;;;;;;;4.75;3.75;;;;;19.47;46.15;101016.94;5043972;28;45629;-78
2022/05/15 02:56:23;;;;;;;;;4.50;2.00;;;;;19.50;45.39;101022.06;5031743;28;46224;-79
2022/05/15 02:58:49;;;;;;;;;2.25;2.25;;;;;19.54;45.41;101037.00;5027398;28;45539;-79
2022/05/15 03:01:15;;;;;;;;;4.00;4.00;;;;;19.53;45.69;101038.00;5033097;28;45503;-79
2022/05/15 03:03:41;;;;;;;;;6.50;5.00;;;;;19.46;45.63;101036.84;5032598;28;45395;-79
2022/05/15 03:06:07;;;;;;;;;4.00;4.00;;;;;19.55;45.68;101045.94;5035745;28;45396;-79
2022/05/15 03:08:34;;;;;;;;;4.00;4.00;;;;;19.47;45.41;101026.88;5033374;28;46094;-78
2022/05/15 03:11:00;;;;;;;;;3.00;3.00;;;;;19.54;45.55;101041.56;5033571;28;45540;-78
2022/05/15 03:13:26;;;;;;;;;2.00;2.00;;;;;19.53;45.65;101046.09;5033484;28;45553;-79
2022/05/15 03:15:51;;;;;;;;;5.00;4.00;;;;;19.43;45.58;101028.16;5033481;28;45449;-78
2022/05/15 03:18:16;;;;;;;;;5.00;5.00;;;;;19.48;45.59;101040.25;5034902;28;46289;-77
2022/05/15 03:20:42;;;;;;;;;3.00;3.00;;;;;19.49;45.70;101043.81;5034321;28;45380;-78
2022/05/15 03:23:07;;;;;;;;;3.00;3.00;;;;;19.49;46.09;101039.25;5033508;28;45581;-77
2022/05/15 03:25:33;;;;;;;;;4.00;3.00;;;;;19.36;45.67;101019.72;5033165;28;45389;-78
2022/05/15 03:27:59;;;;;;;;;5.25;3.00;;;;;19.39;45.73;101015.94;5045300;27;48752;-80
2022/05/15 03:30:24;;;;;;;;;3.50;3.00;;;;;19.42;45.63;101023.75;5074028;27;45518;-80
2022/05/15 03:32:50;;;;;;;;;5.25;4.25;;;;;19.43;45.63;101020.03;5073445;27;45410;-80
2022/05/15 03:35:15;;;;;;;;;4.00;3.00;;;;;19.35;45.83;101018.88;5071523;28;45434;-80
2022/05/15 03:37:42;;;;;;;;;6.50;4.50;;;;;19.35;45.89;101013.47;5058775;28;45965;-80
2022/05/15 03:40:15;;;;;;;;;3.50;3.50;;;;;19.35;46.08;101018.03;5076562;27;45490;-80
2022/05/15 03:42:41;;;;;;;;;5.25;4.25;;;;;19.28;46.13;101016.88;5074757;28;45369;-80
2022/05/15 03:45:07;;;;;;;;;4.00;3.50;;;;;19.18;46.08;100997.94;5056103;28;45371;-80
2022/05/15 03:47:34;;;;;;;;;6.00;4.00;;;;;19.26;46.09;101019.69;5073162;27;46489;-79
2022/05/15 03:50:01;;;;;;;;;4.50;4.00;;;;;19.24;46.27;101018.13;5075764;27;45546;-79
2022/05/15 03:52:26;;;;;;;;;4.00;3.75;;;;;19.21;46.46;101011.16;5070090;28;45477;-79
2022/05/15 03:54:51;;;;;;;;;3.00;3.00;;;;;19.20;46.19;101017.56;5075910;27;45488;-80
2022/05/15 03:57:17;;;;;;;;;5.25;4.00;;;;;19.08;46.39;100989.78;5076576;28;45438;-79
2022/05/15 03:59:43;;;;;;;;;5.00;4.00;;;;;19.09;46.80;100999.59;5055839;28;45447;-80
2022/05/15 04:02:09;;;;;;;;;3.50;3.50;;;;;19.03;46.61;100993.91;5082787;27;45547;-79
2022/05/15 04:04:35;;;;;;;;;4.00;4.00;;;;;19.04;46.56;101006.38;5075469;27;45589;-80
2022/05/15 04:07:02;;;;;;;;;4.75;4.50;;;;;19.00;46.51;100999.53;5075336;27;47716;-79
2022/05/15 04:09:29;;;;;;;;;2.25;2.25;;;;;18.94;46.64;100998.25;5075394;27;45247;-81
2022/05/15 04:11:55;;;;;;;;;4.25;3.25;;;;;18.92;47.03;100984.03;5075232;27;45458;-79
2022/05/15 04:14:20;;;;;;;;;4.50;3.50;;;;;18.89;46.84;100993.25;5075387;27;45549;-79
2022/05/15 04:16:46;;;;;;;;;4.00;3.25;;;;;18.77;46.89;100972.75;5075295;27;45489;-79
2022/05/15 04:19:12;;;;;;;;;3.75;3.25;;;;;18.77;46.87;100985.38;5075404;28;45389;-79
2022/05/15 04:21:37;;;;;;;;;5.00;3.00;;;;;18.83;47.34;101001.00;5075019;28;45506;-79
2022/05/15 04:24:08;;;;;;;;;4.00;4.00;;;;;18.82;47.25;101004.72;5076656;27;45312;-78
2022/05/15 04:26:34;;;;;;;;;3.50;3.00;;;;;18.75;47.12;101004.34;5074782;27;45447;-78
2022/05/15 04:29:00;;;;;;;;;5.00;3.00;;;;;18.60;47.44;100986.81;5074979;28;45608;-78
2022/05/15 04:31:25;;;;;;;;;4.00;4.00;;;;;18.65;47.44;101007.00;5075281;28;45504;-78
2022/05/15 04:33:50;;;;;;;;;4.75;4.75;;;;;18.66;47.56;101021.31;5075432;27;45409;-79
2022/05/15 04:36:16;;;;;;;;;4.00;4.00;;;;;18.65;47.67;101006.13;5076335;28;49877;-79
2022/05/15 04:38:41;;;;;;;;;6.50;4.25;;;;;18.54;47.77;100982.78;5074750;27;46865;-79
2022/05/15 04:41:06;;;;;;;;;4.75;4.75;;;;;18.52;47.86;100979.38;5074492;27;45541;-79
2022/05/15 04:43:32;;;;;;;;;4.00;4.00;;;;;18.57;48.03;100987.94;5073095;27;45374;-79
2022/05/15 04:45:57;;;;;;;;;5.00;4.25;;;;;18.59;48.29;100982.38;5074908;28;46745;-78
2022/05/15 04:48:22;;;;;;;;;5.50;4.00;;;;;18.48;48.44;100968.00;5075640;27;45506;-78
2022/05/15 04:50:48;;;;;;;;;5.25;5.25;;;;;18.59;48.07;100996.75;5076312;28;45518;-78
2022/05/15 04:53:13;;;;;;;;;6.00;5.00;;;;;18.48;48.17;100968.00;5074647;27;45532;-79
2022/05/15 04:55:38;;;;;;;;;3.00;3.00;;;;;18.58;48.10;100994.16;5074548;28;45676;-78
2022/05/15 04:58:04;;;;;;;;;4.25;3.50;;;;;18.51;48.56;100974.97;5074903;27;45645;-78
2022/05/15 05:00:29;;;;;;;;;5.00;5.00;;;;;18.60;48.27;100993.06;5075319;28;46027;-78
2022/05/15 05:02:55;;;;;;;;;4.00;4.00;;;;;18.58;48.01;100996.88;5075055;27;45358;-78
2022/05/15 05:05:20;;;;;;;;;4.50;4.00;;;;;18.53;47.95;100992.72;5074291;27;45915;-78
2022/05/15 05:07:46;;;;;;;;;4.00;4.00;;;;;18.54;48.33;100996.25;5074095;28;47819;-78
2022/05/15 05:10:14;;;;;;;;;3.75;3.75;;;;;18.64;48.10;101017.91;5074604;27;45334;-78
2022/05/15 05:12:39;;;;;;;;;5.00;4.25;;;;;18.63;48.29;101019.75;5074941;27;45527;-78
2022/05/15 05:15:06;;;;;;;;;4.00;4.00;;;;;18.66;48.43;101011.38;5076691;28;46093;-80
2022/05/15 05:17:31;;;;;;;;;3.75;3.00;;;;;18.65;48.44;101006.13;5074445;28;45702;-80
2022/05/15 05:19:57;;;;;;;;;5.25;4.75;;;;;18.58;48.45;100996.88;5074681;27;45482;-78
2022/05/15 05:22:22;;;;;;;;;3.00;3.00;;;;;18.64;48.46;101013.38;5056936;28;45589;-78
2022/05/15 05:24:48;;;;;;;;;3.25;3.25;;;;;18.60;48.69;101020.00;5074213;28;46628;-79
2022/05/15 05:27:13;;;;;;;;;4.00;4.00;;;;;18.52;48.56;101007.19;5054864;28;45354;-79
2022/05/15 05:29:38;;;;;;;;;5.25;5.25;;;;;18.58;48.93;101018.44;5074796;27;45445;-79
2022/05/15 05:32:04;;;;;;;;;7.00;5.00;;;;;18.53;49.26;101013.44;5074501;27;45705;-79
2022/05/15 05:34:29;;;;;;;;;4.50;4.00;;;;;18.59;49.21;101020.13;5074206;28;45426;-80
2022/05/15 05:36:55;;;;;;;;;4.25;4.25;;;;;18.54;49.39;101007.03;5074196;28;45469;-79
2022/05/15 05:39:21;;;;;;;;;4.00;4.00;;;;;18.63;49.66;101029.69;5075329;27;45560;-79
2022/05/15 05:41:47;;;;;;;;;5.25;5.25;;;;;18.62;49.65;101031.53;5052338;28;45307;-79
2022/05/15 05:44:12;;;;;;;;;6.00;3.75;;;;;18.51;49.60;101002.78;5070537;28;46332;-79
2022/05/15 05:46:37;;;;;;;;;2.75;2.75;;;;;18.65;49.88;101025.03;5073840;28;45492;-79
2022/05/15 05:49:03;;;;;;;;;7.00;5.25;;;;;18.66;50.09;101037.50;5074187;27;45455;-78
2022/05/15 05:51:28;;;;;;;;;5.25;4.00;;;;;18.64;50.06;101034.06;5074367;28;45426;-78
2022/05/15 05:53:54;;;;;;;;;5.50;4.00;;;;;18.62;49.84;101025.28;5075160;28;45957;-78
2022/05/15 05:56:19;;;;;;;;;3.75;3.25;;;;;18.70;49.60;101033.56;5073868;27;45446;-78
2022/05/15 05:58:45;;;;;;;;;6.25;4.75;;;;;18.57;50.06;101014.00;5067877;28;45509;-78
2022/05/15 06:01:11;;;;;;;;;4.00;4.00;;;;;18.70;50.00;101017.38;5053392;28;45501;-80
2022/05/15 06:06:20;;;;;;;;;3.00;3.00;;;;;18.78;50.27;101020.28;5074204;27;45478;-81
2022/05/15 06:08:46;;;;;;;;;7.75;5.25;;;;;18.77;50.21;101026.69;5074634;27;45322;-81
2022/05/15 06:11:12;;;;;;;;;4.50;4.50;;;;;18.84;50.07;101018.94;5073573;28;45465;-81
2022/05/15 06:13:39;;;;;;;;;4.50;4.00;;;;;18.86;50.08;101016.97;5073455;28;45470;-81
2022/05/15 06:16:05;;;;;;;;;3.00;3.00;;;;;18.89;49.97;101014.84;5056086;28;45346;-81
2022/05/15 06:18:31;;;;;;;;;4.25;4.25;;;;;18.82;50.01;100985.84;5073002;28;45609;-81
2022/05/15 06:20:57;;;;;;;;;4.00;2.50;;;;;18.97;49.96;101007.91;5073290;28;45572;-81
2022/05/15 06:23:22;;;;;;;;;4.00;4.00;;;;;18.95;49.96;101002.63;5070897;28;46428;-81
2022/05/15 06:25:47;;;;;;;;;5.75;5.00;;;;;19.03;49.92;101007.38;5056144;27;45506;-80
2022/05/15 06:28:13;;;;;;;;;6.00;5.00;;;;;19.03;49.78;101005.53;5074359;27;45938;-83
2022/05/15 06:30:39;;;;;;;;;7.50;5.00;;;;;19.05;49.90;100998.16;5071607;28;47014;-82
2022/05/15 06:33:05;;;;;;;;;3.75;3.75;;;;;19.12;49.53;101009.25;5073852;28;45564;-83
2022/05/15 06:35:31;;;;;;;;;5.25;4.00;;;;;19.09;49.36;100996.88;5072814;28;45286;-83
2022/05/15 06:38:00;;;;;;;;;3.50;3.50;;;;;19.19;49.50;101017.69;5072338;28;45543;-85
2022/05/15 06:40:25;;;;;;;;;3.25;3.25;;;;;19.25;49.59;101015.28;5063372;28;45395;-85
2022/05/15 06:42:51;;;;;;;;;4.00;4.00;;;;;19.30;49.31;101018.44;5072997;28;55501;-85
2022/05/15 06:45:16;;;;;;;;;3.75;3.75;;;;;19.34;49.88;101029.84;5076167;27;45380;-85
2022/05/15 06:47:42;;;;;;;;;5.00;5.00;;;;;19.29;49.18;101018.56;5072841;28;45439;-85
2022/05/15 06:50:08;;;;;;;;;3.00;3.00;;;;;19.42;49.70;101029.16;5072900;28;45295;-85
2022/05/15 06:52:36;;;;;;;;;4.00;3.00;;;;;19.44;49.77;101033.41;5072022;27;47346;-86
2022/05/15 06:55:04;;;;;;;;;3.50;3.50;;;;;19.48;49.79;101034.88;5073085;28;45454;-86
2022/05/15 06:57:29;;;;;;;;;6.50;4.00;;;;;19.48;48.94;101034.88;5055884;28;45495;-86
2022/05/15 07:00:02;;;;;;;;;2.00;2.00;;;;;19.55;49.05;101032.44;5075245;28;45606;-86
2022/05/15 07:02:28;;;;;;;;;4.00;3.00;;;;;19.55;49.21;101029.75;5073145;27;46400;-87
2022/05/15 07:04:54;;;;;;;;;5.00;5.00;;;;;19.65;48.68;101029.78;5072597;28;45674;-86
2022/05/15 07:07:20;;;;;;;;;3.00;3.00;;;;;19.71;48.81;101029.28;5072234;27;45345;-86
2022/05/15 07:09:46;;;;;;;;;3.25;3.25;;;;;19.67;48.41;101006.19;5072829;27;45371;-84
2022/05/15 07:12:11;;;;;;;;;4.00;4.00;;;;;19.82;48.59;101014.78;5071666;27;45584;-86
2022/05/15 07:14:36;;;;;;;;;3.00;3.00;;;;;19.88;48.66;101011.53;5054648;28;45518;-85
2022/05/15 07:17:03;;;;;;;;;4.00;4.00;;;;;19.95;48.46;101004.56;5072985;27;45305;-84
2022/05/15 07:19:28;;;;;;;;;4.00;2.00;;;;;19.95;48.31;100997.31;5072697;28;45470;-85
2022/05/15 07:21:53;;;;;;;;;4.75;4.75;;;;;20.07;48.03;101000.72;5072317;28;47195;-85
2022/05/15 07:24:20;;;;;;;;;3.50;3.50;;;;;20.15;48.26;100994.63;5074018;28;45392;-85
2022/05/15 07:26:46;;;;;;;;;3.50;3.50;;;;;20.20;47.26;100998.63;5073649;27;45379;-85
2022/05/15 07:29:13;;;;;;;;;4.75;4.75;;;;;20.21;46.99;101010.28;5071882;28;45485;-85
2022/05/15 07:31:38;;;;;;;;;4.00;4.00;;;;;20.20;47.76;100979.69;5072568;28;46609;-85
2022/05/15 07:34:03;;;;;;;;;3.00;3.00;;;;;20.21;46.81;100970.56;5072060;27;45414;-85
2022/05/15 07:36:29;;;;;;;;;2.75;2.75;;;;;20.28;46.57;100962.75;5073546;27;45837;-84
2022/05/15 07:38:55;;;;;;;;;5.00;4.00;;;;;20.43;47.41;100976.69;5072879;28;45281;-86
2022/05/15 07:41:20;;;;;;;;;2.25;2.25;;;;;20.40;46.42;100972.41;5072032;28;46282;-85
2022/05/15 07:43:45;;;;;;;;;4.25;3.00;;;;;20.35;46.89;100974.69;5072382;27;45388;-85
2022/05/15 07:46:11;;;;;;;;;5.75;3.25;;;;;20.39;47.16;100970.69;5076112;27;45541;-85
2022/05/15 07:48:36;;;;;;;;;4.75;3.00;;;;;20.42;47.25;100964.16;5075827;28;47968;-86
2022/05/15 07:51:02;;;;;;;;;4.50;4.50;;;;;20.38;47.44;100951.91;5077968;27;45936;-85
2022/05/15 07:53:27;;;;;;;;;3.25;3.25;;;;;20.46;46.53;100960.16;5075954;27;45501;-85
2022/05/15 07:55:55;;;;;;;;;2.50;2.50;;;;;20.42;45.40;100953.34;5075593;28;46715;-86
2022/05/15 07:58:20;;;;;;;;;4.00;4.00;;;;;20.50;45.41;100958.03;5075797;28;45430;-86
2022/05/15 08:00:45;;;;;;;;;5.75;4.00;;;;;20.52;45.68;100947.91;5075886;27;45422;-87
2022/05/15 08:03:12;;;;;;;;;4.00;4.00;;;;;20.58;45.94;100956.31;5077710;27;45488;-85
2022/05/15 08:08:23;;;;;;;;;2.75;2.75;;;;;20.66;44.95;100949.31;5075845;27;45478;-85
2022/05/15 08:10:49;;;;;;;;;2.75;2.25;;;;;20.71;46.34;100947.91;5057410;28;47564;-85
2022/05/15 08:13:19;;;;;;;;;2.50;2.50;;;;;20.71;45.61;100941.63;5075652;27;45449;-85
2022/05/15 08:15:45;;;;;;;;;3.75;3.00;;;;;20.84;45.96;100940.28;5075865;28;45268;-85
2022/05/15 08:23:49;;;;;;;;;2.25;2.25;;;;;21.02;44.75;100907.91;5075984;27;45276;-84
2022/05/15 08:26:14;;;;;;;;;2.50;2.50;;;;;21.13;45.40;100905.97;5075356;27;45441;-84
2022/05/15 08:28:40;;;;;;;;;4.00;4.00;;;;;21.23;44.36;100910.31;5075327;28;45473;-83
2022/05/15 08:31:08;;;;;;;;;4.00;3.00;;;;;21.28;44.13;100899.88;5074845;27;46397;-83
2022/05/15 08:33:36;;;;;;;;;3.25;3.25;;;;;21.47;43.90;100908.94;5075376;28;45388;-84
2022/05/15 08:36:03;;;;;;;;;3.50;3.00;;;;;21.53;43.88;100894.78;5055759;28;45642;-83
2022/05/15 08:38:28;;;;;;;;;2.25;2.25;;;;;21.63;44.36;100887.44;5073827;27;45446;-83
2022/05/15 08:41:00;;;;;;;;;2.00;2.00;;;;;21.79;43.67;100902.13;5074962;27;45514;-83
2022/05/15 08:44:10;;;;;;;;;2.50;2.50;;;;;21.88;43.98;100902.06;5075176;27;45380;-83
2022/05/15 08:46:51;;;;;;;;;2.50;2.50;;;;;21.97;42.88;100904.84;4993554;28;45463;-84
2022/05/15 08:49:31;;;;;;;;;2.00;2.00;;;;;22.04;42.02;100908.66;4994264;28;45567;-83
2022/05/15 08:52:11;;;;;;;;;2.00;2.00;;;;;22.06;42.32;100893.06;4993947;28;46199;-83
2022/05/15 08:54:41;;;;;;;;;2.00;2.00;;;;;22.18;42.65;100899.94;4977547;28;46008;-83
2022/05/15 08:57:48;;;;;;;;;4.00;4.00;;;;;22.27;42.76;100890.91;4994758;28;45481;-83
2022/05/15 09:00:18;;;;;;;;;2.00;2.00;;;;;22.35;41.62;100886.53;4990454;28;45493;-83
2022/05/15 09:02:44;;;;;;;;;2.00;2.00;;;;;22.37;40.87;100876.34;4994078;28;45551;-83
2022/05/15 09:05:12;;;;;;;;;3.00;3.00;;;;;22.44;41.13;100882.84;4993864;28;45424;-84
2022/05/15 09:08:15;;;;;;;;;2.50;2.50;;;;;22.52;42.26;100881.03;4977459;28;45450;-83
2022/05/15 09:11:00;;;;;;;;;3.00;3.00;;;;;22.63;42.25;100887.19;4992759;28;45513;-83
2022/05/15 09:13:28;;;;;;;;;3.50;3.25;;;;;22.69;41.00;100886.56;4993729;28;45619;-83
2022/05/15 09:15:58;;;;;;;;;6.50;3.75;;;;;22.64;42.58;100867.22;4993249;28;45427;-83
2022/05/15 09:18:25;;;;;;;;;4.25;4.25;;;;;22.85;42.21;100881.22;4977264;28;45455;-83
2022/05/15 09:20:54;;;;;;;;;2.25;2.25;;;;;22.92;40.85;100884.13;5043550;27;45545;-84
2022/05/15 09:23:25;;;;;;;;;4.25;3.00;;;;;23.00;40.57;100888.78;5074583;28;46144;-84
2022/05/15 09:25:56;;;;;;;;;4.25;3.50;;;;;23.07;40.97;100879.81;5074154;27;45532;-84
2022/05/15 09:28:26;;;;;;;;;2.75;2.75;;;;;23.10;41.31;100875.91;5074315;27;45423;-83
2022/05/15 09:30:55;;;;;;;;;1.50;1.50;;;;;23.25;38.58;100881.56;5074080;28;45533;-84
2022/05/15 09:33:33;;;;;;;;;2.75;2.75;;;;;23.39;38.23;100873.59;5075440;27;45462;-84
2022/05/15 09:36:23;;;;;;;;;4.50;2.50;;;;;23.51;36.39;100874.16;5074460;27;45473;-84
2022/05/15 09:38:50;;;;;;;;;3.25;1.75;;;;;23.56;36.38;100870.94;5075225;27;45534;-84
2022/05/15 09:44:27;;;;;;;;;2.00;2.00;;;;;23.80;35.63;100865.53;5073125;27;45446;-85
2022/05/15 09:47:16;;;;;;;;;1.25;1.25;;;;;23.85;35.79;100853.31;5073631;27;45469;-83
2022/05/15 09:49:42;;;;;;;;;3.00;2.00;;;;;23.84;35.61;100844.31;5073443;28;45417;-85
2022/05/15 09:52:14;;;;;;;;;2.00;2.00;;;;;24.00;34.52;100846.16;5068281;27;45449;-84
2022/05/15 09:54:43;;;;;;;;;2.00;2.00;;;;;24.11;34.89;100851.25;5073560;27;46204;-84
2022/05/15 09:57:25;;;;;;;;;1.50;1.50;;;;;24.24;35.44;100848.00;5075506;28;45401;-84
2022/05/15 09:59:58;;;;;;;;;2.00;2.00;;;;;24.34;34.93;100853.25;5074611;28;45359;-85
2022/05/15 10:02:47;;;;;;;;;1.00;1.00;;;;;24.29;34.26;100821.09;5055138;27;45410;-84
2022/05/15 10:05:19;;;;;;;;;2.25;2.25;;;;;24.58;34.09;100849.63;5073172;27;46709;-83
2022/05/15 10:08:00;;;;;;;;;3.75;3.00;;;;;24.68;34.68;100833.97;5066402;27;45587;-85
2022/05/15 10:10:55;;;;;;;;;1.75;1.75;;;;;24.85;34.31;100827.44;5073487;28;45394;-86
2022/05/15 10:13:40;;;;;;;;;2.25;2.25;;;;;24.99;33.67;100831.28;4991994;28;45613;-84
2022/05/15 10:16:19;;;;;;;;;2.75;2.75;;;;;25.03;33.82;100818.13;4991898;28;48170;-82
2022/05/15 10:18:56;;;;;;;;;3.00;2.00;;;;;25.16;33.31;100828.44;4976218;28;45871;-86
2022/05/15 10:21:26;;;;;;;;;2.00;2.00;;;;;25.19;33.84;100814.50;4992441;28;45502;-82
2022/05/15 10:24:04;;;;;;;;;2.50;2.00;;;;;25.29;33.50;100813.22;4992602;28;45556;-84
2022/05/15 10:27:16;;;;;;;;;3.00;3.00;;;;;25.37;33.71;100803.31;5008676;28;47219;-83
2022/05/15 10:30:08;;;;;;;;;4.25;3.00;;;;;25.55;34.17;100816.66;4914524;28;45656;-84
2022/05/15 10:32:41;;;;;;;;;4.25;3.00;;;;;25.63;33.84;100806.50;4919208;28;45607;-84
2022/05/15 10:35:15;;;;;;;;;2.00;2.00;;;;;25.72;33.47;100797.22;4919143;28;45542;-84
2022/05/15 10:38:06;;;;;;;;;3.25;3.25;;;;;25.83;33.69;100793.22;4914438;28;46289;-84
2022/05/15 10:40:38;;;;;;;;;3.75;2.50;;;;;25.98;33.32;100798.72;4914808;28;45507;-87
2022/05/15 10:43:06;;;;;;;;;4.25;4.00;;;;;26.06;32.60;100797.81;4916356;28;45577;-85
2022/05/15 10:45:56;;;;;;;;;4.25;3.00;;;;;26.12;32.95;100795.19;4914851;28;45476;-86
2022/05/15 10:48:40;;;;;;;;;4.00;4.00;;;;;26.25;32.32;100794.53;4916478;28;46311;-85
2022/05/15 10:51:24;;;;;;;;;2.50;2.50;;;;;26.32;31.63;100791.91;4999025;28;45487;-85
2022/05/15 10:57:21;;;;;;;;;2.00;2.00;;;;;26.49;30.71;100787.09;4991023;28;45386;-86
2022/05/15 11:00:08;;;;;;;;;2.00;2.00;;;;;26.59;30.75;100786.81;4991542;28;46100;-85
2022/05/15 11:02:45;;;;;;;;;5.00;4.00;;;;;26.69;31.88;100779.19;4973020;28;45502;-86
2022/05/15 11:05:32;;;;;;;;;3.25;3.00;;;;;26.77;30.97;100768.13;5067382;27;45504;-85
2022/05/15 11:08:22;;;;;;;;;4.25;4.25;;;;;26.92;30.44;100779.03;5073105;27;45363;-85
2022/05/15 11:11:06;;;;;;;;;3.00;3.00;;;;;27.04;28.69;100780.22;5067170;27;45500;-85
2022/05/15 11:13:46;;;;;;;;;2.00;2.00;;;;;27.15;27.90;100776.97;5072041;28;45426;-83
2022/05/15 11:16:26;;;;;;;;;3.00;2.00;;;;;27.24;28.37;100771.44;5054055;28;45634;-86
2022/05/15 11:19:00;;;;;;;;;3.00;3.00;;;;;27.36;28.62;100750.72;5058046;28;45493;-86
2022/05/15 11:21:35;;;;;;;;;1.50;1.50;;;;;27.45;27.04;100754.19;5076710;27;45478;-87
2022/05/15 11:24:14;;;;;;;;;2.00;2.00;;;;;27.47;26.60;100742.00;5076604;27;45338;-84
2022/05/15 11:26:45;;;;;;;;;3.50;3.50;;;;;27.55;27.83;100730.06;5074688;28;45844;-84
2022/05/15 11:29:15;;;;;;;;;2.00;2.00;;;;;27.73;28.22;100745.97;5076013;27;45413;-85
2022/05/15 11:31:50;;;;;;;;;2.75;2.75;;;;;27.83;27.49;100752.00;5076484;27;46217;-84
2022/05/15 11:34:15;;;;;;;;;4.25;3.25;;;;;27.93;26.34;100737.97;5075402;28;45270;-85
2022/05/15 11:36:47;;;;;;;;;2.75;2.75;;;;;28.00;26.45;100738.84;5075430;28;45401;-85
2022/05/15 11:39:13;;;;;;;;;3.50;3.00;;;;;28.07;26.08;100730.66;5077437;27;45442;-85
2022/05/15 11:41:38;;;;;;;;;3.50;2.50;;;;;28.11;26.33;100732.78;5075561;27;45548;-84
2022/05/15 11:44:07;;;;;;;;;4.50;3.50;;;;;28.12;26.98;100739.97;5075844;27;45501;-87
2022/05/15 11:46:44;;;;;;;;;4.00;3.00;;;;;28.16;26.56;100726.72;5075304;27;45338;-86
2022/05/15 11:49:38;;;;;;;;;3.00;3.00;;;;;28.19;26.68;100720.81;5057798;28;47407;-85
2022/05/15 11:52:03;;;;;;;;;2.00;2.00;;;;;28.19;26.77;100718.97;5065254;28;45605;-87
2022/05/15 11:54:47;;;;;;;;;5.50;5.00;;;;;28.26;26.84;100716.22;5074152;27;45544;-85